createdAt,value
2022-09-16T00:01:59.101Z,97869.25
2022-09-16T00:04:26.285Z,97867.47
2022-09-16T00:06:53.424Z,97872.69
2022-09-16T00:09:20.551Z,97869.38
2022-09-16T00:11:47.664Z,97869.13
2022-09-16T00:14:14.747Z,97861.41
2022-09-16T00:16:41.978Z,97868.72
2022-09-16T00:19:10.553Z,97864.84
2022-09-16T00:21:38.117Z,97873.25
2022-09-16T00:24:05.615Z,97879.78
2022-09-16T00:26:34.822Z,97879.59
2022-09-16T00:29:02.771Z,97872.91
2022-09-16T00:31:29.952Z,97873.47
2022-09-16T00:33:57.093Z,97869.09
2022-09-16T00:36:25.583Z,97871.00
2022-09-16T00:38:54.929Z,97865.78
2022-09-16T00:41:26.226Z,97865.78
2022-09-16T00:43:56.570Z,97860.09
2022-09-16T00:46:30.964Z,97869.44
2022-09-16T00:49:01.054Z,97867.59
2022-09-16T00:51:29.677Z,97869.44
2022-09-16T00:54:03.344Z,97869.50
2022-09-16T00:56:34.719Z,97876.34
2022-09-16T00:59:06.291Z,97861.81
2022-09-16T01:01:33.538Z,97880.31
2022-09-16T01:04:04.488Z,97863.41
2022-09-16T01:06:37.437Z,97865.53
2022-09-16T01:09:05.061Z,97864.75
2022-09-16T01:11:32.301Z,97872.28
2022-09-16T01:14:21.745Z,97877.22
2022-09-16T01:17:00.081Z,97874.59
2022-09-16T01:19:45.219Z,97869.69
2022-09-16T01:22:25.113Z,97874.09
2022-09-16T01:25:00.468Z,97874.69
2022-09-16T01:27:59.589Z,97884.28
2022-09-16T01:30:40.767Z,97880.41
2022-09-16T01:33:16.547Z,97885.38
2022-09-16T01:36:03.679Z,97885.19
2022-09-16T01:38:48.644Z,97895.88
2022-09-16T01:41:25.009Z,97896.16
2022-09-16T01:43:59.576Z,97894.09
2022-09-16T01:46:39.333Z,97886.81
2022-09-16T01:49:18.573Z,97888.44
2022-09-16T01:51:50.714Z,97893.19
2022-09-16T01:54:24.630Z,97894.25
2022-09-16T01:56:57.873Z,97885.16
2022-09-16T01:59:31.704Z,97892.75
2022-09-16T02:02:04.744Z,97894.84
2022-09-16T02:04:36.825Z,97896.97
2022-09-16T02:07:08.313Z,97897.50
2022-09-16T02:09:40.462Z,97894.91
2022-09-16T02:12:11.593Z,97898.53
2022-09-16T02:14:41.960Z,97896.25
2022-09-16T02:17:13.118Z,97908.94
2022-09-16T02:19:43.618Z,97911.28
2022-09-16T02:22:14.667Z,97912.06
2022-09-16T02:24:45.422Z,97921.97
2022-09-16T02:27:16.887Z,97909.53
2022-09-16T02:29:48.746Z,97901.19
2022-09-16T02:32:20.351Z,97906.47
2022-09-16T02:34:50.312Z,97910.63
2022-09-16T02:37:20.458Z,97909.38
2022-09-16T02:39:50.697Z,97907.31
2022-09-16T02:42:18.269Z,97907.09
2022-09-16T02:44:47.150Z,97913.84
2022-09-16T02:47:26.582Z,97910.22
2022-09-16T02:49:57.814Z,97919.38
2022-09-16T02:52:32.114Z,97916.50
2022-09-16T02:55:05.994Z,97914.44
2022-09-16T02:57:33.482Z,97919.66
2022-09-16T03:00:00.669Z,97918.84
2022-09-16T03:02:29.290Z,97915.72
2022-09-16T03:04:57.215Z,97915.94
2022-09-16T03:07:24.308Z,97922.16
2022-09-16T03:09:52.258Z,97927.31
2022-09-16T03:12:43.759Z,97923.09
2022-09-16T03:15:48.114Z,97925.16
2022-09-16T03:18:40.833Z,97925.16
2022-09-16T03:21:15.894Z,97922.06
2022-09-16T03:23:47.290Z,97921.78
2022-09-16T03:26:22.560Z,97920.00
2022-09-16T03:29:02.433Z,97919.75
2022-09-16T03:31:33.627Z,97923.66
2022-09-16T03:34:07.845Z,97915.34
2022-09-16T03:36:41.209Z,97921.31
2022-09-16T03:39:10.789Z,97920.56
2022-09-16T03:41:38.370Z,97917.72
2022-09-16T03:44:05.499Z,97906.03
2022-09-16T03:46:32.959Z,97913.63
2022-09-16T03:49:00.430Z,97902.75
2022-09-16T03:51:28.913Z,97899.91
2022-09-16T03:53:56.105Z,97910.31
2022-09-16T03:56:24.259Z,97909.81
2022-09-16T03:58:52.229Z,97912.41
2022-09-16T04:01:19.515Z,97914.97
2022-09-16T04:03:46.667Z,97908.69
2022-09-16T04:06:14.450Z,97898.50
2022-09-16T04:08:45.028Z,97911.22
2022-09-16T04:11:12.574Z,97908.00
2022-09-16T04:13:40.215Z,97912.06
2022-09-16T04:16:07.369Z,97920.06
2022-09-16T04:18:34.954Z,97915.81
2022-09-16T04:21:04.788Z,97914.41
2022-09-16T04:23:32.109Z,97910.72
2022-09-16T04:26:02.291Z,97924.16
2022-09-16T04:28:33.753Z,97921.56
2022-09-16T04:31:02.527Z,97917.06
2022-09-16T04:33:30.477Z,97917.50
2022-09-16T04:36:03.041Z,97924.97
2022-09-16T04:38:30.352Z,97921.25
2022-09-16T04:41:03.654Z,97922.75
2022-09-16T04:43:30.813Z,97927.06
2022-09-16T04:45:58.099Z,97925.59
2022-09-16T04:48:27.514Z,97929.84
2022-09-16T04:50:56.294Z,97931.19
2022-09-16T04:53:23.486Z,97930.16
2022-09-16T04:55:50.649Z,97934.00
2022-09-16T04:58:19.156Z,97922.91
2022-09-16T05:00:46.680Z,97945.34
2022-09-16T05:03:13.920Z,97951.66
2022-09-16T05:05:41.091Z,97938.13
2022-09-16T05:08:08.523Z,97935.81
2022-09-16T05:10:35.692Z,97941.41
2022-09-16T05:13:02.898Z,97942.41
2022-09-16T05:15:31.428Z,97942.31
2022-09-16T05:17:58.608Z,97942.41
2022-09-16T05:20:25.713Z,97945.56
2022-09-16T05:22:52.805Z,97948.91
2022-09-16T05:25:20.125Z,97942.38
2022-09-16T05:27:47.386Z,97946.59
2022-09-16T05:30:15.934Z,97932.97
2022-09-16T05:32:44.478Z,97945.41
2022-09-16T05:35:11.677Z,97941.28
2022-09-16T05:37:38.869Z,97939.59
2022-09-16T05:40:07.565Z,97943.34
2022-09-16T05:42:34.730Z,97934.91
2022-09-16T05:45:01.946Z,97946.06
2022-09-16T05:47:29.006Z,97943.56
2022-09-16T05:49:57.494Z,97939.91
2022-09-16T05:52:25.573Z,97948.63
2022-09-16T05:54:52.880Z,97947.88
2022-09-16T05:57:21.752Z,97961.06
2022-09-16T05:59:49.043Z,97965.78
2022-09-16T06:02:16.335Z,97959.34
2022-09-16T06:04:43.626Z,97958.25
2022-09-16T06:07:12.623Z,97957.69
2022-09-16T06:09:39.724Z,97938.66
2022-09-16T06:12:07.189Z,97943.63
2022-09-16T06:14:34.365Z,97943.41
2022-09-16T06:17:01.828Z,97940.88
2022-09-16T06:19:28.935Z,97943.03
2022-09-16T06:21:56.209Z,97946.53
2022-09-16T06:24:24.918Z,97947.81
2022-09-16T06:26:53.109Z,97944.75
2022-09-16T06:29:20.205Z,97944.31
2022-09-16T06:31:47.398Z,97954.91
2022-09-16T06:34:16.378Z,97962.63
2022-09-16T06:36:45.382Z,97962.69
2022-09-16T06:39:14.421Z,97967.22
2022-09-16T06:41:43.016Z,97961.97
2022-09-16T06:44:10.466Z,97956.28
2022-09-16T06:46:38.184Z,97959.63
2022-09-16T06:49:06.445Z,97969.06
2022-09-16T06:51:36.259Z,97963.19
2022-09-16T06:54:05.495Z,97972.22
2022-09-16T06:56:35.923Z,97972.94
2022-09-16T06:59:04.564Z,97967.81
2022-09-16T07:01:32.362Z,97967.81
2022-09-16T07:04:02.869Z,97977.56
2022-09-16T07:06:57.395Z,97984.69
2022-09-16T07:09:17.710Z,97978.56
2022-09-16T07:11:44.835Z,97976.22
2022-09-16T07:14:13.370Z,97984.31
2022-09-16T07:16:40.736Z,97979.41
2022-09-16T07:19:07.943Z,97981.78
2022-09-16T07:21:35.061Z,97982.41
2022-09-16T07:24:03.435Z,97981.34
2022-09-16T07:26:32.861Z,97984.53
2022-09-16T07:29:02.004Z,97983.25
2022-09-16T07:31:32.405Z,97980.34
2022-09-16T07:34:04.313Z,97978.13
2022-09-16T07:36:33.770Z,97977.78
2022-09-16T07:39:00.962Z,97975.34
2022-09-16T07:41:30.472Z,97979.34
2022-09-16T07:43:59.379Z,97976.50
2022-09-16T07:46:28.622Z,97981.09
2022-09-16T07:48:59.769Z,97986.63
2022-09-16T07:51:28.061Z,97999.63
2022-09-16T07:53:58.584Z,97996.38
2022-09-16T07:56:28.999Z,97999.56
2022-09-16T07:58:57.469Z,97996.69
2022-09-16T08:01:25.946Z,97997.97
2022-09-16T08:03:53.935Z,97998.34
2022-09-16T08:06:24.493Z,97996.81
2022-09-16T08:08:52.931Z,98005.25
2022-09-16T08:11:20.773Z,97999.81
2022-09-16T08:13:48.277Z,97984.91
2022-09-16T08:16:17.387Z,97977.94
2022-09-16T08:18:45.329Z,97987.03
2022-09-16T08:21:15.315Z,97994.34
2022-09-16T08:23:44.108Z,97984.97
2022-09-16T08:26:12.475Z,97979.41
2022-09-16T08:28:57.473Z,97977.94
2022-09-16T08:31:29.472Z,97981.34
2022-09-16T08:33:56.596Z,97973.66
2022-09-16T08:36:25.233Z,97969.06
2022-09-16T08:38:56.676Z,97973.47
2022-09-16T08:41:33.202Z,97977.84
2022-09-16T08:44:07.699Z,97967.50
2022-09-16T08:46:40.560Z,97977.44
2022-09-16T08:49:17.832Z,97973.31
2022-09-16T08:51:45.880Z,97975.84
2022-09-16T08:54:25.089Z,97972.00
2022-09-16T08:56:55.050Z,97971.34
2022-09-16T08:59:27.842Z,97972.13
2022-09-16T09:02:03.950Z,97971.44
2022-09-16T09:04:33.914Z,97972.66
2022-09-16T09:07:11.665Z,97968.88
2022-09-16T09:09:51.897Z,97965.94
2022-09-16T09:12:33.231Z,97978.59
2022-09-16T09:15:16.785Z,97973.75
2022-09-16T09:17:56.992Z,97963.13
2022-09-16T09:20:37.063Z,97963.09
2022-09-16T09:23:15.702Z,97963.09
2022-09-16T09:25:53.381Z,97958.56
2022-09-16T09:28:39.267Z,97960.16
2022-09-16T09:31:15.998Z,97946.09
2022-09-16T09:33:48.874Z,97945.34
2022-09-16T09:36:32.557Z,97941.16
2022-09-16T09:39:12.335Z,97938.09
2022-09-16T09:41:44.853Z,97944.59
2022-09-16T09:44:39.438Z,97930.88
2022-09-16T09:47:12.434Z,97930.47
2022-09-16T09:49:44.401Z,97937.75
2022-09-16T09:52:16.555Z,97939.66
2022-09-16T09:54:48.295Z,97928.56
2022-09-16T09:57:25.156Z,97933.16
2022-09-16T10:00:02.322Z,97936.97
2022-09-16T10:02:42.395Z,97931.22
2022-09-16T10:05:25.385Z,97935.44
2022-09-16T10:07:57.025Z,97930.09
2022-09-16T10:10:27.259Z,97935.06
2022-09-16T10:13:06.017Z,97931.59
2022-09-16T10:15:34.459Z,97921.31
2022-09-16T10:18:03.366Z,97933.88
2022-09-16T10:20:34.972Z,97933.50
2022-09-16T10:23:04.742Z,97938.84
2022-09-16T10:25:33.626Z,97930.47
2022-09-16T10:28:04.092Z,97938.81
2022-09-16T10:30:33.764Z,97928.13
2022-09-16T10:33:04.649Z,97924.66
2022-09-16T10:35:34.479Z,97924.63
2022-09-16T10:38:05.102Z,97926.16
2022-09-16T10:40:33.657Z,97935.31
2022-09-16T10:43:04.548Z,97927.34
2022-09-16T10:45:35.398Z,97922.38
2022-09-16T10:48:07.841Z,97919.72
2022-09-16T10:50:35.048Z,97904.84
2022-09-16T10:53:02.224Z,97913.28
2022-09-16T10:55:38.700Z,97907.53
2022-09-16T10:58:16.613Z,97902.59
2022-09-16T11:00:51.676Z,97903.38
2022-09-16T11:03:44.524Z,97912.16
2022-09-16T11:06:24.357Z,97912.91
2022-09-16T11:09:02.470Z,97909.53
2022-09-16T11:11:43.025Z,97902.25
2022-09-16T11:14:21.732Z,97891.19
2022-09-16T11:17:03.066Z,97889.28
2022-09-16T11:19:43.038Z,97890.03
2022-09-16T11:22:21.522Z,97898.44
2022-09-16T11:25:01.453Z,97904.53
2022-09-16T11:27:41.288Z,97896.50
2022-09-16T11:30:16.981Z,97897.97
2022-09-16T11:33:02.087Z,97896.84
2022-09-16T11:35:41.297Z,97890.63
2022-09-16T11:38:18.478Z,97889.78
2022-09-16T11:40:49.018Z,97888.13
2022-09-16T11:43:42.237Z,97879.72
2022-09-16T11:46:19.222Z,97874.78
2022-09-16T11:49:00.164Z,97874.38
2022-09-16T11:51:41.561Z,97869.00
2022-09-16T11:54:24.984Z,97865.94
2022-09-16T11:56:56.189Z,97859.09
2022-09-16T11:59:28.878Z,97853.47
2022-09-16T12:02:03.405Z,97844.09
2022-09-16T12:04:37.602Z,97843.06
2022-09-16T12:07:13.176Z,97841.19
2022-09-16T12:09:47.103Z,97837.41
2022-09-16T12:12:18.579Z,97842.00
2022-09-16T12:14:50.550Z,97844.28
2022-09-16T12:17:21.862Z,97840.47
2022-09-16T12:19:57.308Z,97838.22
2022-09-16T12:22:30.539Z,97833.22
2022-09-16T12:25:02.874Z,97843.09
2022-09-16T12:27:46.937Z,97829.69
2022-09-16T12:30:17.130Z,97839.94
2022-09-16T12:33:00.155Z,97837.16
2022-09-16T12:38:04.644Z,97832.31
2022-09-16T12:40:44.522Z,97826.16
2022-09-16T12:43:45.068Z,97825.22
2022-09-16T12:46:35.244Z,97821.28
2022-09-16T12:49:37.448Z,97820.00
2022-09-16T12:52:40.059Z,97814.44
2022-09-16T12:55:37.274Z,97816.34
2022-09-16T12:58:43.596Z,97812.13
2022-09-16T13:01:18.514Z,97811.28
2022-09-16T13:03:50.316Z,97824.56
2022-09-16T13:06:24.657Z,97822.13
2022-09-16T13:08:51.999Z,97825.09
2022-09-16T13:14:22.190Z,97832.47
2022-09-16T13:16:53.793Z,97836.88
2022-09-16T13:19:45.403Z,97834.09
2022-09-16T13:22:22.050Z,97853.75
2022-09-16T13:24:53.953Z,97851.69
2022-09-16T13:27:31.650Z,97861.34
2022-09-16T13:30:27.110Z,97878.28
2022-09-16T13:33:00.709Z,97897.97
2022-09-16T13:35:49.451Z,97908.19
2022-09-16T13:38:36.845Z,97908.75
2022-09-16T13:41:04.377Z,97883.31
2022-09-16T13:43:34.247Z,97864.84
2022-09-16T13:46:04.504Z,97876.50
2022-09-16T13:48:37.739Z,97885.25
2022-09-16T13:51:10.602Z,97898.16
2022-09-16T13:53:45.217Z,97911.41
2022-09-16T13:56:36.822Z,97912.00
2022-09-16T13:59:20.471Z,97888.97
2022-09-16T14:02:00.233Z,97898.50
2022-09-16T14:04:44.432Z,97907.44
2022-09-16T14:07:22.715Z,97901.09
2022-09-16T14:10:00.621Z,97894.59
2022-09-16T14:12:39.216Z,97898.72
2022-09-16T14:15:08.040Z,97888.75
2022-09-16T14:17:40.298Z,97887.19
2022-09-16T14:20:16.204Z,97895.91
2022-09-16T14:22:46.546Z,97892.25
2022-09-16T14:25:30.262Z,97894.56
2022-09-16T14:28:16.571Z,97893.03
2022-09-16T14:30:49.418Z,97874.53
2022-09-16T14:33:19.850Z,97885.25
2022-09-16T14:35:49.562Z,97875.47
2022-09-16T14:38:43.751Z,97886.50
2022-09-16T14:41:10.088Z,97883.22
2022-09-16T14:43:38.948Z,97885.84
2022-09-16T14:46:07.863Z,97876.81
2022-09-16T14:48:41.515Z,97877.28
2022-09-16T14:51:16.108Z,97871.31
2022-09-16T14:53:55.429Z,97873.50
2022-09-16T14:56:31.722Z,97864.38
2022-09-16T14:58:59.213Z,97863.28
2022-09-16T15:01:28.286Z,97862.41
2022-09-16T15:04:00.376Z,97872.97
2022-09-16T15:06:41.870Z,97858.41
2022-09-16T15:09:16.359Z,97858.28
2022-09-16T15:11:48.686Z,97850.38
2022-09-16T15:14:16.720Z,97854.91
2022-09-16T15:16:48.053Z,97851.59
2022-09-16T15:19:21.393Z,97853.00
2022-09-16T15:21:49.256Z,97843.44
2022-09-16T15:24:20.331Z,97852.13
2022-09-16T15:26:49.401Z,97863.78
2022-09-16T15:29:29.838Z,97864.03
2022-09-16T15:32:07.260Z,97860.19
2022-09-16T15:34:34.538Z,97870.22
2022-09-16T15:37:04.155Z,97857.94
2022-09-16T15:39:33.334Z,97866.97
2022-09-16T15:42:10.889Z,97857.22
2022-09-16T15:44:38.758Z,97860.94
2022-09-16T15:47:06.173Z,97857.69
2022-09-16T15:49:37.642Z,97857.56
2022-09-16T15:52:08.329Z,97846.06
2022-09-16T15:54:45.425Z,97854.06
2022-09-16T15:57:32.453Z,97842.53
2022-09-16T16:00:11.581Z,97839.34
2022-09-16T16:02:45.153Z,97841.34
2022-09-16T16:05:15.247Z,97825.97
2022-09-16T16:07:45.830Z,97826.84
2022-09-16T16:10:17.195Z,97830.31
2022-09-16T16:12:48.058Z,97831.63
2022-09-16T16:15:17.483Z,97821.53
2022-09-16T16:17:45.380Z,97813.81
2022-09-16T16:20:13.539Z,97796.81
2022-09-16T16:22:41.503Z,97789.69
2022-09-16T16:25:09.587Z,97795.63
2022-09-16T16:27:36.693Z,97809.44
2022-09-16T16:30:06.467Z,97819.66
2022-09-16T16:32:35.004Z,97812.81
2022-09-16T16:35:02.104Z,97811.19
2022-09-16T16:37:45.574Z,97809.72
2022-09-16T16:40:14.962Z,97809.16
2022-09-16T16:42:43.706Z,97803.03
2022-09-16T16:45:13.781Z,97800.25
2022-09-16T16:47:41.520Z,97797.38
2022-09-16T16:50:09.714Z,97800.22
2022-09-16T16:52:37.139Z,97795.59
2022-09-16T16:55:04.844Z,97791.75
2022-09-16T16:57:32.062Z,97787.13
2022-09-16T16:59:59.361Z,97778.53
2022-09-16T17:02:27.837Z,97777.22
2022-09-16T17:04:55.004Z,97762.41
2022-09-16T17:07:27.340Z,97771.25
2022-09-16T17:09:57.490Z,97765.13
2022-09-16T17:12:27.629Z,97769.50
2022-09-16T17:14:54.945Z,97779.69
2022-09-16T17:17:23.103Z,97788.97
2022-09-16T17:19:53.341Z,97782.53
2022-09-16T17:22:20.514Z,97768.72
2022-09-16T17:24:47.829Z,97762.88
2022-09-16T17:27:19.817Z,97760.38
2022-09-16T17:29:47.094Z,97758.19
2022-09-16T17:32:14.205Z,97754.78
2022-09-16T17:34:41.695Z,97758.84
2022-09-16T17:37:10.762Z,97754.22
2022-09-16T17:39:38.420Z,97757.03
2022-09-16T17:42:05.814Z,97764.03
2022-09-16T17:44:33.255Z,97768.69
2022-09-16T17:47:00.841Z,97778.22
2022-09-16T17:49:28.089Z,97775.75
2022-09-16T17:51:55.325Z,97771.03
2022-09-16T17:54:24.234Z,97770.88
2022-09-16T17:56:51.666Z,97781.13
2022-09-16T17:59:19.801Z,97792.22
2022-09-16T18:01:46.992Z,97793.97
2022-09-16T18:04:14.239Z,97792.75
2022-09-16T18:06:43.447Z,97789.22
2022-09-16T18:09:11.721Z,97801.09
2022-09-16T18:11:40.695Z,97801.00
2022-09-16T18:14:11.224Z,97799.31
2022-09-16T18:16:38.804Z,97810.75
2022-09-16T18:19:06.719Z,97806.13
2022-09-16T18:21:34.115Z,97797.34
2022-09-16T18:24:03.023Z,97792.59
2022-09-16T18:26:31.394Z,97779.63
2022-09-16T18:29:10.939Z,97794.97
2022-09-16T18:31:40.634Z,97801.63
2022-09-16T18:34:08.349Z,97799.63
2022-09-16T18:36:36.981Z,97806.59
2022-09-16T18:39:05.678Z,97815.72
2022-09-16T18:41:36.970Z,97816.94
2022-09-16T18:44:07.663Z,97808.16
2022-09-16T18:46:36.925Z,97817.13
2022-09-16T18:49:04.786Z,97821.47
2022-09-16T18:51:33.784Z,97820.06
2022-09-16T18:54:02.962Z,97831.78
2022-09-16T18:56:33.761Z,97839.84
2022-09-16T18:59:21.141Z,97839.53
2022-09-16T19:01:52.292Z,97843.66
2022-09-16T19:04:21.466Z,97838.09
2022-09-16T19:06:50.409Z,97847.66
2022-09-16T19:09:20.151Z,97843.03
2022-09-16T19:11:47.781Z,97835.16
2022-09-16T19:14:15.492Z,97837.59
2022-09-16T19:16:44.756Z,97846.50
2022-09-16T19:19:16.730Z,97844.63
2022-09-16T19:21:44.522Z,97845.06
2022-09-16T19:24:14.231Z,97842.44
2022-09-16T19:26:42.693Z,97846.94
2022-09-16T19:29:11.561Z,97853.34
2022-09-16T19:31:40.752Z,97855.03
2022-09-16T19:34:08.729Z,97852.53
2022-09-16T19:36:38.482Z,97852.06
2022-09-16T19:39:07.079Z,97851.88
2022-09-16T19:41:36.242Z,97843.88
2022-09-16T19:44:05.731Z,97847.09
2022-09-16T19:46:34.858Z,97851.09
2022-09-16T19:49:02.928Z,97850.91
2022-09-16T19:51:30.089Z,97848.44
2022-09-16T19:54:00.713Z,97850.72
2022-09-16T19:56:31.413Z,97844.84
2022-09-16T19:58:59.378Z,97849.88
2022-09-16T20:01:28.617Z,97850.31
2022-09-16T20:03:56.496Z,97840.84
2022-09-16T20:06:25.508Z,97843.41
2022-09-16T20:08:54.204Z,97845.94
2022-09-16T20:11:24.586Z,97846.22
2022-09-16T20:13:53.599Z,97839.41
2022-09-16T20:16:22.849Z,97836.06
2022-09-16T20:18:50.059Z,97837.41
2022-09-16T20:21:19.331Z,97840.59
2022-09-16T20:23:47.148Z,97842.56
2022-09-16T20:26:19.562Z,97842.09
2022-09-16T20:28:52.466Z,97834.56
2022-09-16T20:31:21.767Z,97846.09
2022-09-16T20:33:49.749Z,97848.03
2022-09-16T20:36:18.526Z,97848.81
2022-09-16T20:38:46.836Z,97842.78
2022-09-16T20:41:15.983Z,97839.72
2022-09-16T20:43:43.554Z,97842.91
2022-09-16T20:46:14.138Z,97852.13
2022-09-16T20:48:42.514Z,97849.63
2022-09-16T20:51:11.678Z,97855.75
2022-09-16T20:53:39.965Z,97855.44
2022-09-16T20:56:09.888Z,97868.72
2022-09-16T20:58:37.690Z,97862.81
2022-09-16T21:01:07.093Z,97859.13
2022-09-16T21:03:35.832Z,97854.13
2022-09-16T21:06:05.077Z,97863.50
2022-09-16T21:08:37.029Z,97861.66
2022-09-16T21:11:05.344Z,97862.41
2022-09-16T21:13:32.606Z,97845.41
2022-09-16T21:16:00.719Z,97849.66
2022-09-16T21:18:28.388Z,97835.75
2022-09-16T21:21:02.152Z,97836.25
2022-09-16T21:23:30.003Z,97838.66
2022-09-16T21:26:02.179Z,97845.53
2022-09-16T21:28:29.959Z,97850.56
2022-09-16T21:31:02.027Z,97849.31
2022-09-16T21:33:30.341Z,97850.94
2022-09-16T21:35:57.561Z,97854.44
2022-09-16T21:38:28.164Z,97863.44
2022-09-16T21:40:56.700Z,97865.38
2022-09-16T21:43:24.981Z,97863.81
2022-09-16T21:45:52.232Z,97851.81
2022-09-16T21:48:19.624Z,97847.75
2022-09-16T21:50:47.226Z,97854.97
2022-09-16T21:53:14.774Z,97855.66
2022-09-16T21:55:43.412Z,97854.66
2022-09-16T21:58:10.563Z,97846.53
2022-09-16T22:00:38.473Z,97848.09
2022-09-16T22:03:06.239Z,97848.69
2022-09-16T22:05:34.179Z,97838.81
2022-09-16T22:08:01.944Z,97840.44
2022-09-16T22:10:29.861Z,97855.91
2022-09-16T22:12:58.958Z,97851.25
2022-09-16T22:15:26.158Z,97836.94
2022-09-16T22:17:54.280Z,97844.78
2022-09-16T22:20:25.506Z,97846.88
2022-09-16T22:22:52.867Z,97854.25
2022-09-16T22:25:20.043Z,97850.09
2022-09-16T22:27:47.294Z,97841.56
2022-09-16T22:30:16.026Z,97837.41
2022-09-16T22:32:43.606Z,97835.34
2022-09-16T22:35:10.737Z,97828.09
2022-09-16T22:37:37.887Z,97829.94
2022-09-16T22:40:06.399Z,97824.22
2022-09-16T22:42:33.560Z,97819.97
2022-09-16T22:45:00.695Z,97812.66
2022-09-16T22:47:29.873Z,97809.34
2022-09-16T22:49:56.999Z,97806.75
2022-09-16T22:52:24.166Z,97803.34
2022-09-16T22:54:51.551Z,97809.91
2022-09-16T22:57:18.650Z,97795.31
2022-09-16T22:59:45.913Z,97799.47
2022-09-16T23:02:13.179Z,97794.84
2022-09-16T23:04:41.818Z,97783.16
2022-09-16T23:07:10.110Z,97779.47
2022-09-16T23:09:56.118Z,97771.25
2022-09-16T23:12:23.324Z,97778.66
2022-09-16T23:14:50.582Z,97780.28
2022-09-16T23:17:17.750Z,97777.97
2022-09-16T23:19:46.277Z,97779.31
2022-09-16T23:22:13.426Z,97765.28
2022-09-16T23:24:40.713Z,97769.59
2022-09-16T23:27:07.940Z,97766.63
2022-09-16T23:29:35.233Z,97774.53
2022-09-16T23:32:04.274Z,97764.56
2022-09-16T23:34:31.393Z,97766.16
2022-09-16T23:36:59.906Z,97770.28
2022-09-16T23:39:27.022Z,97765.34
2022-09-16T23:41:54.255Z,97760.44
2022-09-16T23:44:22.519Z,97757.63
2022-09-16T23:46:49.781Z,97751.13
2022-09-16T23:49:19.378Z,97746.97
2022-09-16T23:51:47.064Z,97749.59
2022-09-16T23:54:16.341Z,97740.78
2022-09-16T23:56:43.516Z,97741.03
2022-09-16T23:59:10.837Z,97743.41
